sensor_id;sensor_type;location;lat;lon;timestamp;P1;durP1;ratioP1;P2;durP2;ratioP2
27113;SDS011;14648;49.730;8.614;2023-04-25T00:01:32;3.93;;;3.63;;
27113;SDS011;14648;49.730;8.614;2023-04-25T00:04:02;6.27;;;4.30;;
27113;SDS011;14648;49.730;8.614;2023-04-25T00:06:28;5.73;;;3.50;;
27113;SDS011;14648;49.730;8.614;2023-04-25T00:08:54;5.37;;;4.07;;
27113;SDS011;14648;49.730;8.614;2023-04-25T00:11:21;4.20;;;3.80;;
27113;SDS011;14648;49.730;8.614;2023-04-25T00:13:48;5.23;;;3.77;;
27113;SDS011;14648;49.730;8.614;2023-04-25T00:16:15;6.67;;;4.13;;
27113;SDS011;14648;49.730;8.614;2023-04-25T00:18:41;4.40;;;3.83;;
27113;SDS011;14648;49.730;8.614;2023-04-25T00:21:08;4.93;;;4.43;;
27113;SDS011;14648;49.730;8.614;2023-04-25T00:23:34;8.70;;;3.73;;
27113;SDS011;14648;49.730;8.614;2023-04-25T00:26:01;5.67;;;4.00;;
27113;SDS011;14648;49.730;8.614;2023-04-25T00:28:27;3.70;;;3.37;;
27113;SDS011;14648;49.730;8.614;2023-04-25T00:30:53;8.33;;;3.53;;
27113;SDS011;14648;49.730;8.614;2023-04-25T00:33:19;5.30;;;3.90;;
27113;SDS011;14648;49.730;8.614;2023-04-25T00:35:45;4.57;;;4.10;;
27113;SDS011;14648;49.730;8.614;2023-04-25T00:38:10;4.00;;;3.43;;
27113;SDS011;14648;49.730;8.614;2023-04-25T00:40:36;5.60;;;4.23;;
27113;SDS011;14648;49.730;8.614;2023-04-25T00:43:02;5.33;;;3.87;;
27113;SDS011;14648;49.730;8.614;2023-04-25T00:45:28;5.03;;;4.03;;
27113;SDS011;14648;49.730;8.614;2023-04-25T00:47:55;3.27;;;2.97;;
27113;SDS011;14648;49.730;8.614;2023-04-25T00:50:21;4.43;;;3.40;;
27113;SDS011;14648;49.730;8.614;2023-04-25T00:52:47;5.67;;;3.30;;
27113;SDS011;14648;49.730;8.614;2023-04-25T00:55:13;4.03;;;3.70;;
27113;SDS011;14648;49.730;8.614;2023-04-25T00:57:40;7.87;;;3.33;;
27113;SDS011;14648;49.730;8.614;2023-04-25T01:00:07;4.17;;;3.10;;
27113;SDS011;14648;49.730;8.614;2023-04-25T01:02:35;3.53;;;3.23;;
27113;SDS011;14648;49.730;8.614;2023-04-25T01:05:01;3.53;;;3.20;;
27113;SDS011;14648;49.730;8.614;2023-04-25T01:07:27;3.40;;;3.10;;
27113;SDS011;14648;49.730;8.614;2023-04-25T01:09:53;4.77;;;4.37;;
27113;SDS011;14648;49.730;8.614;2023-04-25T01:12:19;3.10;;;2.90;;
27113;SDS011;14648;49.730;8.614;2023-04-25T01:14:45;4.07;;;3.40;;
27113;SDS011;14648;49.730;8.614;2023-04-25T01:17:11;3.80;;;3.10;;
27113;SDS011;14648;49.730;8.614;2023-04-25T01:19:37;5.50;;;3.57;;
27113;SDS011;14648;49.730;8.614;2023-04-25T01:22:04;4.87;;;2.97;;
27113;SDS011;14648;49.730;8.614;2023-04-25T01:24:33;3.90;;;3.57;;
27113;SDS011;14648;49.730;8.614;2023-04-25T01:26:59;3.63;;;2.77;;
27113;SDS011;14648;49.730;8.614;2023-04-25T01:29:26;4.87;;;3.60;;
27113;SDS011;14648;49.730;8.614;2023-04-25T01:31:52;3.57;;;3.27;;
27113;SDS011;14648;49.730;8.614;2023-04-25T01:34:18;4.17;;;3.60;;
27113;SDS011;14648;49.730;8.614;2023-04-25T01:36:44;4.20;;;3.80;;
27113;SDS011;14648;49.730;8.614;2023-04-25T01:39:12;7.43;;;3.80;;
27113;SDS011;14648;49.730;8.614;2023-04-25T01:41:38;4.53;;;4.13;;
27113;SDS011;14648;49.730;8.614;2023-04-25T01:44:04;4.93;;;4.40;;
27113;SDS011;14648;49.730;8.614;2023-04-25T01:46:30;5.27;;;4.67;;
27113;SDS011;14648;49.730;8.614;2023-04-25T01:48:57;5.10;;;3.87;;
27113;SDS011;14648;49.730;8.614;2023-04-25T01:51:23;5.90;;;4.63;;
27113;SDS011;14648;49.730;8.614;2023-04-25T01:53:49;6.13;;;4.00;;
27113;SDS011;14648;49.730;8.614;2023-04-25T01:56:15;6.13;;;4.93;;
27113;SDS011;14648;49.730;8.614;2023-04-25T01:58:43;4.57;;;4.10;;
27113;SDS011;14648;49.730;8.614;2023-04-25T02:01:09;3.60;;;3.30;;
27113;SDS011;14648;49.730;8.614;2023-04-25T02:03:35;4.40;;;3.60;;
27113;SDS011;14648;49.730;8.614;2023-04-25T02:06:01;5.33;;;3.90;;
27113;SDS011;14648;49.730;8.614;2023-04-25T02:08:27;6.00;;;5.30;;
27113;SDS011;14648;49.730;8.614;2023-04-25T02:10:53;5.13;;;4.37;;
27113;SDS011;14648;49.730;8.614;2023-04-25T02:13:19;7.50;;;4.63;;
27113;SDS011;14648;49.730;8.614;2023-04-25T02:15:44;5.73;;;4.93;;
27113;SDS011;14648;49.730;8.614;2023-04-25T02:18:10;11.83;;;5.33;;
27113;SDS011;14648;49.730;8.614;2023-04-25T02:20:36;6.90;;;5.00;;
27113;SDS011;14648;49.730;8.614;2023-04-25T02:23:02;7.70;;;5.67;;
27113;SDS011;14648;49.730;8.614;2023-04-25T02:25:28;9.80;;;6.43;;
27113;SDS011;14648;49.730;8.614;2023-04-25T02:27:54;12.00;;;5.90;;
27113;SDS011;14648;49.730;8.614;2023-04-25T02:30:20;9.00;;;5.70;;
27113;SDS011;14648;49.730;8.614;2023-04-25T02:32:46;11.10;;;5.80;;
27113;SDS011;14648;49.730;8.614;2023-04-25T02:35:12;8.80;;;6.10;;
27113;SDS011;14648;49.730;8.614;2023-04-25T02:37:38;8.40;;;5.93;;
27113;SDS011;14648;49.730;8.614;2023-04-25T02:40:05;8.23;;;5.93;;
27113;SDS011;14648;49.730;8.614;2023-04-25T02:42:31;8.43;;;5.57;;
27113;SDS011;14648;49.730;8.614;2023-04-25T02:44:57;5.87;;;5.23;;
27113;SDS011;14648;49.730;8.614;2023-04-25T02:47:23;4.90;;;4.37;;
27113;SDS011;14648;49.730;8.614;2023-04-25T02:49:49;5.90;;;5.10;;
27113;SDS011;14648;49.730;8.614;2023-04-25T02:52:14;8.70;;;6.77;;
27113;SDS011;14648;49.730;8.614;2023-04-25T02:54:40;8.07;;;6.10;;
27113;SDS011;14648;49.730;8.614;2023-04-25T02:57:06;6.70;;;5.23;;
27113;SDS011;14648;49.730;8.614;2023-04-25T02:59:32;7.67;;;4.97;;
27113;SDS011;14648;49.730;8.614;2023-04-25T03:01:58;6.53;;;4.90;;
27113;SDS011;14648;49.730;8.614;2023-04-25T03:04:24;7.83;;;6.07;;
27113;SDS011;14648;49.730;8.614;2023-04-25T03:06:50;7.70;;;5.20;;
27113;SDS011;14648;49.730;8.614;2023-04-25T03:09:16;9.03;;;4.80;;
27113;SDS011;14648;49.730;8.614;2023-04-25T03:11:43;9.43;;;6.00;;
27113;SDS011;14648;49.730;8.614;2023-04-25T03:14:10;8.73;;;4.97;;
27113;SDS011;14648;49.730;8.614;2023-04-25T03:16:36;8.60;;;6.00;;
27113;SDS011;14648;49.730;8.614;2023-04-25T03:19:02;7.17;;;5.03;;
27113;SDS011;14648;49.730;8.614;2023-04-25T03:21:29;7.20;;;5.40;;
27113;SDS011;14648;49.730;8.614;2023-04-25T03:23:57;7.97;;;4.30;;
27113;SDS011;14648;49.730;8.614;2023-04-25T03:26:23;5.97;;;4.70;;
27113;SDS011;14648;49.730;8.614;2023-04-25T03:28:49;8.27;;;5.57;;
27113;SDS011;14648;49.730;8.614;2023-04-25T03:31:14;8.77;;;6.03;;
27113;SDS011;14648;49.730;8.614;2023-04-25T03:33:40;6.00;;;5.40;;
27113;SDS011;14648;49.730;8.614;2023-04-25T03:36:06;10.50;;;5.20;;
27113;SDS011;14648;49.730;8.614;2023-04-25T03:38:32;7.40;;;5.20;;
27113;SDS011;14648;49.730;8.614;2023-04-25T03:40:58;8.57;;;5.53;;
27113;SDS011;14648;49.730;8.614;2023-04-25T03:43:24;8.17;;;5.17;;
27113;SDS011;14648;49.730;8.614;2023-04-25T03:45:49;7.77;;;5.77;;
27113;SDS011;14648;49.730;8.614;2023-04-25T03:48:15;11.13;;;5.60;;
27113;SDS011;14648;49.730;8.614;2023-04-25T03:50:44;7.60;;;5.20;;
27113;SDS011;14648;49.730;8.614;2023-04-25T03:53:10;6.87;;;5.10;;
27113;SDS011;14648;49.730;8.614;2023-04-25T03:55:35;7.50;;;5.33;;
27113;SDS011;14648;49.730;8.614;2023-04-25T03:58:01;6.43;;;5.20;;
27113;SDS011;14648;49.730;8.614;2023-04-25T04:00:27;7.57;;;5.27;;
27113;SDS011;14648;49.730;8.614;2023-04-25T04:02:52;8.70;;;5.10;;
27113;SDS011;14648;49.730;8.614;2023-04-25T04:05:18;8.97;;;5.80;;
27113;SDS011;14648;49.730;8.614;2023-04-25T04:07:44;6.83;;;4.87;;
27113;SDS011;14648;49.730;8.614;2023-04-25T04:10:10;6.53;;;5.10;;
27113;SDS011;14648;49.730;8.614;2023-04-25T04:12:36;6.30;;;4.77;;
27113;SDS011;14648;49.730;8.614;2023-04-25T04:15:03;6.67;;;5.40;;
27113;SDS011;14648;49.730;8.614;2023-04-25T04:17:30;9.70;;;5.43;;
27113;SDS011;14648;49.730;8.614;2023-04-25T04:19:57;6.20;;;4.73;;
27113;SDS011;14648;49.730;8.614;2023-04-25T04:22:23;7.83;;;6.27;;
27113;SDS011;14648;49.730;8.614;2023-04-25T04:24:49;6.13;;;4.10;;
27113;SDS011;14648;49.730;8.614;2023-04-25T04:27:16;5.17;;;4.63;;
27113;SDS011;14648;49.730;8.614;2023-04-25T04:29:43;7.10;;;5.30;;
27113;SDS011;14648;49.730;8.614;2023-04-25T04:32:10;8.80;;;5.93;;
27113;SDS011;14648;49.730;8.614;2023-04-25T04:34:35;5.93;;;5.30;;
27113;SDS011;14648;49.730;8.614;2023-04-25T04:37:02;5.43;;;4.60;;
27113;SDS011;14648;49.730;8.614;2023-04-25T04:39:28;9.20;;;5.70;;
27113;SDS011;14648;49.730;8.614;2023-04-25T04:41:53;6.03;;;5.00;;
27113;SDS011;14648;49.730;8.614;2023-04-25T04:44:19;6.67;;;4.83;;
27113;SDS011;14648;49.730;8.614;2023-04-25T04:46:45;7.10;;;4.50;;
27113;SDS011;14648;49.730;8.614;2023-04-25T04:49:11;6.10;;;4.50;;
27113;SDS011;14648;49.730;8.614;2023-04-25T04:51:38;6.87;;;4.40;;
27113;SDS011;14648;49.730;8.614;2023-04-25T04:54:05;6.80;;;4.07;;
27113;SDS011;14648;49.730;8.614;2023-04-25T04:56:31;6.30;;;4.30;;
27113;SDS011;14648;49.730;8.614;2023-04-25T04:58:57;4.60;;;4.07;;
27113;SDS011;14648;49.730;8.614;2023-04-25T05:01:24;4.57;;;4.07;;
27113;SDS011;14648;49.730;8.614;2023-04-25T05:03:50;6.80;;;5.33;;
27113;SDS011;14648;49.730;8.614;2023-04-25T05:06:18;7.60;;;5.50;;
27113;SDS011;14648;49.730;8.614;2023-04-25T05:08:44;5.30;;;4.80;;
27113;SDS011;14648;49.730;8.614;2023-04-25T05:11:10;7.07;;;5.30;;
27113;SDS011;14648;49.730;8.614;2023-04-25T05:13:36;6.03;;;4.90;;
27113;SDS011;14648;49.730;8.614;2023-04-25T05:16:02;4.87;;;4.13;;
27113;SDS011;14648;49.730;8.614;2023-04-25T05:18:28;6.30;;;4.53;;
27113;SDS011;14648;49.730;8.614;2023-04-25T05:20:54;8.00;;;5.53;;
27113;SDS011;14648;49.730;8.614;2023-04-25T05:23:20;7.10;;;4.93;;
27113;SDS011;14648;49.730;8.614;2023-04-25T05:25:46;9.27;;;5.67;;
27113;SDS011;14648;49.730;8.614;2023-04-25T05:28:12;5.93;;;4.43;;
27113;SDS011;14648;49.730;8.614;2023-04-25T05:30:38;8.70;;;6.40;;
27113;SDS011;14648;49.730;8.614;2023-04-25T05:33:04;7.53;;;5.97;;
27113;SDS011;14648;49.730;8.614;2023-04-25T05:35:30;17.33;;;6.70;;
27113;SDS011;14648;49.730;8.614;2023-04-25T05:37:56;6.70;;;5.77;;
27113;SDS011;14648;49.730;8.614;2023-04-25T05:40:21;10.60;;;5.97;;
27113;SDS011;14648;49.730;8.614;2023-04-25T05:42:47;6.50;;;5.73;;
27113;SDS011;14648;49.730;8.614;2023-04-25T05:45:12;7.23;;;5.73;;
27113;SDS011;14648;49.730;8.614;2023-04-25T05:47:38;6.50;;;5.10;;
27113;SDS011;14648;49.730;8.614;2023-04-25T05:50:04;10.33;;;6.10;;
27113;SDS011;14648;49.730;8.614;2023-04-25T05:52:31;12.20;;;5.90;;
27113;SDS011;14648;49.730;8.614;2023-04-25T05:54:56;12.03;;;5.60;;
27113;SDS011;14648;49.730;8.614;2023-04-25T05:57:26;14.60;;;6.50;;
27113;SDS011;14648;49.730;8.614;2023-04-25T05:59:52;12.33;;;6.23;;
27113;SDS011;14648;49.730;8.614;2023-04-25T06:02:22;13.13;;;4.90;;
27113;SDS011;14648;49.730;8.614;2023-04-25T06:04:48;9.63;;;5.47;;
27113;SDS011;14648;49.730;8.614;2023-04-25T06:07:15;9.67;;;5.90;;
27113;SDS011;14648;49.730;8.614;2023-04-25T06:09:42;10.30;;;4.93;;
27113;SDS011;14648;49.730;8.614;2023-04-25T06:12:09;14.07;;;5.70;;
27113;SDS011;14648;49.730;8.614;2023-04-25T06:14:35;9.80;;;5.70;;
27113;SDS011;14648;49.730;8.614;2023-04-25T06:17:01;17.00;;;5.30;;
27113;SDS011;14648;49.730;8.614;2023-04-25T06:19:35;16.50;;;8.57;;
27113;SDS011;14648;49.730;8.614;2023-04-25T06:22:01;14.20;;;6.97;;
27113;SDS011;14648;49.730;8.614;2023-04-25T06:24:27;10.73;;;5.30;;
27113;SDS011;14648;49.730;8.614;2023-04-25T06:26:53;10.13;;;5.73;;
27113;SDS011;14648;49.730;8.614;2023-04-25T06:29:20;7.60;;;4.70;;
27113;SDS011;14648;49.730;8.614;2023-04-25T06:31:46;11.93;;;5.77;;
27113;SDS011;14648;49.730;8.614;2023-04-25T06:34:12;14.37;;;5.30;;
27113;SDS011;14648;49.730;8.614;2023-04-25T06:36:37;21.93;;;6.40;;
27113;SDS011;14648;49.730;8.614;2023-04-25T06:39:03;11.40;;;5.90;;
27113;SDS011;14648;49.730;8.614;2023-04-25T06:41:29;14.67;;;5.90;;
27113;SDS011;14648;49.730;8.614;2023-04-25T06:43:55;13.67;;;6.07;;
27113;SDS011;14648;49.730;8.614;2023-04-25T06:46:21;10.17;;;5.97;;
27113;SDS011;14648;49.730;8.614;2023-04-25T06:48:47;11.13;;;5.70;;
27113;SDS011;14648;49.730;8.614;2023-04-25T06:51:12;17.17;;;6.47;;
27113;SDS011;14648;49.730;8.614;2023-04-25T06:53:38;17.33;;;6.80;;
27113;SDS011;14648;49.730;8.614;2023-04-25T06:56:05;14.07;;;5.37;;
27113;SDS011;14648;49.730;8.614;2023-04-25T06:58:31;9.03;;;5.10;;
27113;SDS011;14648;49.730;8.614;2023-04-25T07:00:56;20.17;;;6.10;;
27113;SDS011;14648;49.730;8.614;2023-04-25T07:03:22;7.40;;;5.50;;
27113;SDS011;14648;49.730;8.614;2023-04-25T07:05:49;10.03;;;6.30;;
27113;SDS011;14648;49.730;8.614;2023-04-25T07:08:15;12.97;;;4.70;;
27113;SDS011;14648;49.730;8.614;2023-04-25T07:10:41;18.37;;;5.90;;
27113;SDS011;14648;49.730;8.614;2023-04-25T07:13:07;19.03;;;5.30;;
27113;SDS011;14648;49.730;8.614;2023-04-25T07:15:33;7.80;;;5.30;;
27113;SDS011;14648;49.730;8.614;2023-04-25T07:17:59;11.07;;;5.10;;
27113;SDS011;14648;49.730;8.614;2023-04-25T07:20:25;16.30;;;5.50;;
27113;SDS011;14648;49.730;8.614;2023-04-25T07:22:52;11.40;;;5.17;;
27113;SDS011;14648;49.730;8.614;2023-04-25T07:25:18;13.00;;;4.73;;
27113;SDS011;14648;49.730;8.614;2023-04-25T07:27:44;12.87;;;5.23;;
27113;SDS011;14648;49.730;8.614;2023-04-25T07:30:10;9.00;;;5.23;;
27113;SDS011;14648;49.730;8.614;2023-04-25T07:32:37;12.63;;;5.17;;
27113;SDS011;14648;49.730;8.614;2023-04-25T07:35:03;14.60;;;5.27;;
27113;SDS011;14648;49.730;8.614;2023-04-25T07:37:30;12.17;;;4.40;;
27113;SDS011;14648;49.730;8.614;2023-04-25T07:39:59;12.20;;;4.47;;
27113;SDS011;14648;49.730;8.614;2023-04-25T07:42:24;7.93;;;4.93;;
27113;SDS011;14648;49.730;8.614;2023-04-25T07:44:50;15.03;;;5.87;;
27113;SDS011;14648;49.730;8.614;2023-04-25T07:47:16;15.40;;;5.83;;
27113;SDS011;14648;49.730;8.614;2023-04-25T07:49:44;10.63;;;5.40;;
27113;SDS011;14648;49.730;8.614;2023-04-25T07:52:10;10.30;;;5.73;;
27113;SDS011;14648;49.730;8.614;2023-04-25T07:54:37;14.90;;;5.63;;
27113;SDS011;14648;49.730;8.614;2023-04-25T07:57:02;10.63;;;5.00;;
27113;SDS011;14648;49.730;8.614;2023-04-25T07:59:28;7.87;;;5.40;;
27113;SDS011;14648;49.730;8.614;2023-04-25T08:01:54;10.97;;;4.57;;
27113;SDS011;14648;49.730;8.614;2023-04-25T08:04:21;8.63;;;4.57;;
27113;SDS011;14648;49.730;8.614;2023-04-25T08:06:47;7.50;;;5.30;;
27113;SDS011;14648;49.730;8.614;2023-04-25T08:09:13;9.13;;;5.10;;
27113;SDS011;14648;49.730;8.614;2023-04-25T08:11:40;10.23;;;4.90;;
27113;SDS011;14648;49.730;8.614;2023-04-25T08:14:06;12.80;;;5.67;;
27113;SDS011;14648;49.730;8.614;2023-04-25T08:16:32;12.13;;;5.17;;
27113;SDS011;14648;49.730;8.614;2023-04-25T08:18:59;7.03;;;4.80;;
27113;SDS011;14648;49.730;8.614;2023-04-25T08:21:25;11.97;;;4.07;;
27113;SDS011;14648;49.730;8.614;2023-04-25T08:23:52;12.30;;;4.70;;
27113;SDS011;14648;49.730;8.614;2023-04-25T08:26:18;13.67;;;4.97;;
27113;SDS011;14648;49.730;8.614;2023-04-25T08:28:44;6.73;;;4.23;;
27113;SDS011;14648;49.730;8.614;2023-04-25T08:31:09;5.10;;;3.80;;
27113;SDS011;14648;49.730;8.614;2023-04-25T08:33:35;7.73;;;4.30;;
27113;SDS011;14648;49.730;8.614;2023-04-25T08:36:01;11.40;;;4.37;;
27113;SDS011;14648;49.730;8.614;2023-04-25T08:38:30;14.43;;;4.10;;
27113;SDS011;14648;49.730;8.614;2023-04-25T08:40:56;8.50;;;4.17;;
27113;SDS011;14648;49.730;8.614;2023-04-25T08:43:25;14.40;;;5.00;;
27113;SDS011;14648;49.730;8.614;2023-04-25T08:45:54;7.93;;;4.00;;
27113;SDS011;14648;49.730;8.614;2023-04-25T08:48:28;11.53;;;4.63;;
27113;SDS011;14648;49.730;8.614;2023-04-25T08:50:58;19.30;;;5.00;;
27113;SDS011;14648;49.730;8.614;2023-04-25T08:53:27;6.23;;;3.20;;
27113;SDS011;14648;49.730;8.614;2023-04-25T08:55:55;20.73;;;4.73;;
27113;SDS011;14648;49.730;8.614;2023-04-25T08:58:23;6.37;;;4.00;;
27113;SDS011;14648;49.730;8.614;2023-04-25T09:00:49;8.20;;;4.97;;
27113;SDS011;14648;49.730;8.614;2023-04-25T09:03:19;7.83;;;4.30;;
27113;SDS011;14648;49.730;8.614;2023-04-25T09:05:45;6.63;;;4.10;;
27113;SDS011;14648;49.730;8.614;2023-04-25T09:08:11;14.23;;;3.93;;
27113;SDS011;14648;49.730;8.614;2023-04-25T09:10:37;11.40;;;4.53;;
27113;SDS011;14648;49.730;8.614;2023-04-25T09:13:04;15.53;;;4.53;;
27113;SDS011;14648;49.730;8.614;2023-04-25T09:15:47;6.47;;;4.10;;
27113;SDS011;14648;49.730;8.614;2023-04-25T09:18:33;21.53;;;4.60;;
27113;SDS011;14648;49.730;8.614;2023-04-25T09:21:12;10.03;;;4.00;;
27113;SDS011;14648;49.730;8.614;2023-04-25T09:26:10;4.70;;;3.27;;
27113;SDS011;14648;49.730;8.614;2023-04-25T09:28:42;6.70;;;3.33;;
27113;SDS011;14648;49.730;8.614;2023-04-25T09:31:09;5.90;;;4.37;;
27113;SDS011;14648;49.730;8.614;2023-04-25T09:33:36;13.10;;;4.63;;
27113;SDS011;14648;49.730;8.614;2023-04-25T09:36:03;6.63;;;3.60;;
27113;SDS011;14648;49.730;8.614;2023-04-25T09:38:32;4.30;;;3.27;;
27113;SDS011;14648;49.730;8.614;2023-04-25T09:41:11;11.63;;;3.07;;
27113;SDS011;14648;49.730;8.614;2023-04-25T09:43:37;11.33;;;2.60;;
27113;SDS011;14648;49.730;8.614;2023-04-25T09:46:07;4.77;;;2.70;;
27113;SDS011;14648;49.730;8.614;2023-04-25T09:48:36;6.23;;;3.00;;
27113;SDS011;14648;49.730;8.614;2023-04-25T09:51:09;3.13;;;2.83;;
27113;SDS011;14648;49.730;8.614;2023-04-25T09:53:38;5.10;;;3.00;;
27113;SDS011;14648;49.730;8.614;2023-04-25T09:56:11;5.97;;;2.80;;
27113;SDS011;14648;49.730;8.614;2023-04-25T09:58:39;6.70;;;4.80;;
27113;SDS011;14648;49.730;8.614;2023-04-25T10:01:06;10.10;;;3.00;;
27113;SDS011;14648;49.730;8.614;2023-04-25T10:03:35;6.20;;;2.93;;
27113;SDS011;14648;49.730;8.614;2023-04-25T10:06:14;5.30;;;3.37;;
27113;SDS011;14648;49.730;8.614;2023-04-25T10:08:44;3.50;;;2.30;;
27113;SDS011;14648;49.730;8.614;2023-04-25T10:11:13;7.80;;;2.50;;
27113;SDS011;14648;49.730;8.614;2023-04-25T10:13:40;4.10;;;3.17;;
27113;SDS011;14648;49.730;8.614;2023-04-25T10:16:07;5.03;;;3.00;;
27113;SDS011;14648;49.730;8.614;2023-04-25T10:18:33;3.80;;;2.50;;
27113;SDS011;14648;49.730;8.614;2023-04-25T10:21:00;6.93;;;2.80;;
27113;SDS011;14648;49.730;8.614;2023-04-25T10:23:29;7.63;;;2.23;;
27113;SDS011;14648;49.730;8.614;2023-04-25T10:25:59;4.50;;;4.10;;
27113;SDS011;14648;49.730;8.614;2023-04-25T10:28:25;3.10;;;2.37;;
27113;SDS011;14648;49.730;8.614;2023-04-25T10:33:35;3.10;;;2.40;;
27113;SDS011;14648;49.730;8.614;2023-04-25T10:38:43;2.60;;;1.80;;
27113;SDS011;14648;49.730;8.614;2023-04-25T10:41:11;2.57;;;2.37;;
27113;SDS011;14648;49.730;8.614;2023-04-25T10:43:42;4.50;;;2.17;;
27113;SDS011;14648;49.730;8.614;2023-04-25T10:46:13;4.50;;;2.77;;
27113;SDS011;14648;49.730;8.614;2023-04-25T10:49:07;4.70;;;2.37;;
27113;SDS011;14648;49.730;8.614;2023-04-25T10:51:35;3.93;;;2.50;;
27113;SDS011;14648;49.730;8.614;2023-04-25T10:54:02;3.00;;;2.17;;
27113;SDS011;14648;49.730;8.614;2023-04-25T10:59:18;7.77;;;2.60;;
27113;SDS011;14648;49.730;8.614;2023-04-25T11:01:46;5.80;;;2.83;;
27113;SDS011;14648;49.730;8.614;2023-04-25T11:04:20;2.90;;;2.23;;
27113;SDS011;14648;49.730;8.614;2023-04-25T11:09:32;5.97;;;3.27;;
27113;SDS011;14648;49.730;8.614;2023-04-25T11:11:59;7.10;;;3.00;;
27113;SDS011;14648;49.730;8.614;2023-04-25T11:14:26;3.17;;;3.00;;
27113;SDS011;14648;49.730;8.614;2023-04-25T11:16:52;2.90;;;2.33;;
27113;SDS011;14648;49.730;8.614;2023-04-25T11:19:21;4.50;;;2.90;;
27113;SDS011;14648;49.730;8.614;2023-04-25T11:21:48;6.37;;;3.07;;
27113;SDS011;14648;49.730;8.614;2023-04-25T11:24:13;4.87;;;3.13;;
27113;SDS011;14648;49.730;8.614;2023-04-25T11:26:41;3.47;;;2.77;;
27113;SDS011;14648;49.730;8.614;2023-04-25T11:29:08;2.70;;;2.40;;
27113;SDS011;14648;49.730;8.614;2023-04-25T11:31:34;5.80;;;3.13;;
27113;SDS011;14648;49.730;8.614;2023-04-25T11:33:59;9.93;;;3.53;;
27113;SDS011;14648;49.730;8.614;2023-04-25T11:36:25;3.40;;;3.13;;
27113;SDS011;14648;49.730;8.614;2023-04-25T11:38:52;6.20;;;3.20;;
27113;SDS011;14648;49.730;8.614;2023-04-25T11:41:22;4.70;;;2.87;;
27113;SDS011;14648;49.730;8.614;2023-04-25T11:43:48;5.00;;;3.00;;
27113;SDS011;14648;49.730;8.614;2023-04-25T11:46:15;6.90;;;3.57;;
27113;SDS011;14648;49.730;8.614;2023-04-25T11:48:41;9.00;;;4.03;;
27113;SDS011;14648;49.730;8.614;2023-04-25T11:51:11;5.77;;;3.70;;
27113;SDS011;14648;49.730;8.614;2023-04-25T11:53:40;5.03;;;3.03;;
27113;SDS011;14648;49.730;8.614;2023-04-25T11:56:11;8.60;;;4.50;;
27113;SDS011;14648;49.730;8.614;2023-04-25T11:58:53;4.20;;;3.20;;
27113;SDS011;14648;49.730;8.614;2023-04-25T12:03:57;9.83;;;4.00;;
27113;SDS011;14648;49.730;8.614;2023-04-25T12:06:27;5.80;;;3.83;;
27113;SDS011;14648;49.730;8.614;2023-04-25T12:09:03;3.70;;;3.40;;
27113;SDS011;14648;49.730;8.614;2023-04-25T12:11:30;7.93;;;4.67;;
27113;SDS011;14648;49.730;8.614;2023-04-25T12:14:02;5.37;;;3.07;;
27113;SDS011;14648;49.730;8.614;2023-04-25T12:16:29;7.00;;;3.93;;
27113;SDS011;14648;49.730;8.614;2023-04-25T12:19:05;7.93;;;4.20;;
27113;SDS011;14648;49.730;8.614;2023-04-25T12:21:32;4.63;;;3.87;;
27113;SDS011;14648;49.730;8.614;2023-04-25T12:24:08;4.93;;;3.77;;
27113;SDS011;14648;49.730;8.614;2023-04-25T12:26:46;7.30;;;3.60;;
27113;SDS011;14648;49.730;8.614;2023-04-25T12:29:22;5.80;;;3.27;;
27113;SDS011;14648;49.730;8.614;2023-04-25T12:31:50;5.40;;;4.30;;
27113;SDS011;14648;49.730;8.614;2023-04-25T12:34:18;4.57;;;4.17;;
27113;SDS011;14648;49.730;8.614;2023-04-25T12:36:48;5.63;;;4.43;;
27113;SDS011;14648;49.730;8.614;2023-04-25T12:39:15;5.90;;;4.00;;
27113;SDS011;14648;49.730;8.614;2023-04-25T12:41:43;7.17;;;3.67;;
27113;SDS011;14648;49.730;8.614;2023-04-25T12:44:09;5.87;;;3.77;;
27113;SDS011;14648;49.730;8.614;2023-04-25T12:46:35;13.70;;;4.93;;
27113;SDS011;14648;49.730;8.614;2023-04-25T12:49:03;7.67;;;4.40;;
27113;SDS011;14648;49.730;8.614;2023-04-25T12:51:29;4.63;;;3.23;;
27113;SDS011;14648;49.730;8.614;2023-04-25T12:53:57;10.20;;;3.73;;
27113;SDS011;14648;49.730;8.614;2023-04-25T12:56:25;9.17;;;3.67;;
27113;SDS011;14648;49.730;8.614;2023-04-25T12:58:52;7.80;;;3.93;;
27113;SDS011;14648;49.730;8.614;2023-04-25T13:01:18;7.03;;;4.00;;
27113;SDS011;14648;49.730;8.614;2023-04-25T13:03:48;5.03;;;4.10;;
27113;SDS011;14648;49.730;8.614;2023-04-25T13:06:15;4.50;;;3.37;;
27113;SDS011;14648;49.730;8.614;2023-04-25T13:08:42;7.20;;;3.57;;
27113;SDS011;14648;49.730;8.614;2023-04-25T13:11:08;5.20;;;4.10;;
27113;SDS011;14648;49.730;8.614;2023-04-25T13:13:34;12.47;;;4.03;;
27113;SDS011;14648;49.730;8.614;2023-04-25T13:16:01;8.03;;;4.60;;
27113;SDS011;14648;49.730;8.614;2023-04-25T13:18:28;6.30;;;3.37;;
27113;SDS011;14648;49.730;8.614;2023-04-25T13:20:55;3.87;;;3.47;;
27113;SDS011;14648;49.730;8.614;2023-04-25T13:23:21;4.67;;;2.80;;
27113;SDS011;14648;49.730;8.614;2023-04-25T13:25:47;5.80;;;3.27;;
27113;SDS011;14648;49.730;8.614;2023-04-25T13:28:13;4.30;;;3.27;;
27113;SDS011;14648;49.730;8.614;2023-04-25T13:30:39;5.23;;;2.90;;
27113;SDS011;14648;49.730;8.614;2023-04-25T13:33:05;4.33;;;3.30;;
27113;SDS011;14648;49.730;8.614;2023-04-25T13:35:32;5.60;;;3.80;;
27113;SDS011;14648;49.730;8.614;2023-04-25T13:37:59;18.07;;;3.83;;
27113;SDS011;14648;49.730;8.614;2023-04-25T13:40:25;7.30;;;4.20;;
27113;SDS011;14648;49.730;8.614;2023-04-25T13:42:52;3.20;;;2.90;;
27113;SDS011;14648;49.730;8.614;2023-04-25T13:45:18;5.03;;;2.90;;
27113;SDS011;14648;49.730;8.614;2023-04-25T13:47:45;6.07;;;2.90;;
27113;SDS011;14648;49.730;8.614;2023-04-25T13:50:12;8.27;;;3.20;;
27113;SDS011;14648;49.730;8.614;2023-04-25T13:52:38;4.03;;;2.57;;
27113;SDS011;14648;49.730;8.614;2023-04-25T13:55:05;8.03;;;2.60;;
27113;SDS011;14648;49.730;8.614;2023-04-25T13:57:33;10.60;;;2.53;;
27113;SDS011;14648;49.730;8.614;2023-04-25T14:00:00;8.37;;;2.73;;
27113;SDS011;14648;49.730;8.614;2023-04-25T14:02:33;9.70;;;3.20;;
27113;SDS011;14648;49.730;8.614;2023-04-25T14:05:03;8.80;;;3.17;;
27113;SDS011;14648;49.730;8.614;2023-04-25T14:07:29;4.37;;;3.20;;
27113;SDS011;14648;49.730;8.614;2023-04-25T14:09:55;5.80;;;3.37;;
27113;SDS011;14648;49.730;8.614;2023-04-25T14:12:22;4.57;;;2.10;;
27113;SDS011;14648;49.730;8.614;2023-04-25T14:14:48;4.47;;;3.50;;
27113;SDS011;14648;49.730;8.614;2023-04-25T14:17:14;3.50;;;1.70;;
27113;SDS011;14648;49.730;8.614;2023-04-25T14:19:40;6.37;;;2.70;;
27113;SDS011;14648;49.730;8.614;2023-04-25T14:22:10;3.60;;;2.60;;
27113;SDS011;14648;49.730;8.614;2023-04-25T14:24:36;8.70;;;2.53;;
27113;SDS011;14648;49.730;8.614;2023-04-25T14:27:03;2.73;;;2.30;;
27113;SDS011;14648;49.730;8.614;2023-04-25T14:29:29;3.13;;;2.60;;
27113;SDS011;14648;49.730;8.614;2023-04-25T14:31:55;8.50;;;3.70;;
27113;SDS011;14648;49.730;8.614;2023-04-25T14:34:22;4.77;;;3.17;;
27113;SDS011;14648;49.730;8.614;2023-04-25T14:36:49;9.73;;;3.17;;
27113;SDS011;14648;49.730;8.614;2023-04-25T14:39:15;4.50;;;2.80;;
27113;SDS011;14648;49.730;8.614;2023-04-25T14:41:41;4.53;;;3.70;;
27113;SDS011;14648;49.730;8.614;2023-04-25T14:44:07;3.63;;;2.40;;
27113;SDS011;14648;49.730;8.614;2023-04-25T14:46:33;5.70;;;2.60;;
27113;SDS011;14648;49.730;8.614;2023-04-25T14:48:59;5.97;;;3.00;;
27113;SDS011;14648;49.730;8.614;2023-04-25T14:51:25;3.70;;;2.40;;
27113;SDS011;14648;49.730;8.614;2023-04-25T14:53:51;3.40;;;2.90;;
27113;SDS011;14648;49.730;8.614;2023-04-25T14:56:17;5.33;;;2.60;;
27113;SDS011;14648;49.730;8.614;2023-04-25T14:58:43;6.33;;;2.53;;
27113;SDS011;14648;49.730;8.614;2023-04-25T15:01:10;5.70;;;2.87;;